Time;durP1;ratioP1;P1;durP2;ratioP2;P2;SDS_P1;SDS_P2;PMS_P1;PMS_P2;Temp;Humidity;BMP_temperature;BMP_pressure;BME280_temperature;BME280_humidity;BME280_pressure;Samples;Min_cycle;Max_cycle;Signal;HPM_P1;HPM_P2
2022/12/29 00:01:53;;;;;;;;;10.75;8.75;;;;;9.43;37.84;98767.63;6179185;28;96723;-64
2022/12/29 00:04:56;;;;;;;;;10.00;9.00;;;;;9.46;37.92;98763.69;6183314;28;96830;-64
2022/12/29 00:08:00;;;;;;;;;9.00;9.00;;;;;9.45;37.66;98768.25;6163457;28;98368;-65
2022/12/29 00:11:04;;;;;;;;;8.80;7.80;;;;;9.45;37.85;98767.41;6170666;28;96189;-65
2022/12/29 00:17:31;;;;;;;;;10.00;9.80;;;;;9.45;38.04;98779.00;6183156;28;99474;-65
2022/12/29 00:44:14;;;;;;;;;8.00;8.00;;;;;9.61;37.68;98779.53;6186069;28;96534;-65
2022/12/29 00:47:19;;;;;;;;;11.00;10.00;;;;;9.26;37.86;98714.56;6183166;28;96641;-64
2022/12/29 00:50:22;;;;;;;;;8.00;7.50;;;;;9.64;37.54;98771.00;6183287;27;98393;-64
2022/12/29 00:53:25;;;;;;;;;11.40;11.40;;;;;9.70;37.52;98779.03;6180099;28;96663;-64
2022/12/29 00:56:30;;;;;;;;;10.75;10.75;;;;;9.71;37.67;98778.00;6183830;28;97813;-64
2022/12/29 00:59:36;;;;;;;;;10.00;8.00;;;;;9.80;37.58;98778.56;6184396;28;96345;-64
2022/12/29 01:02:39;;;;;;;;;8.00;7.00;;;;;9.78;37.44;98780.63;6183881;28;96895;-64
2022/12/29 01:05:43;;;;;;;;;8.00;7.00;;;;;9.75;37.49;98773.00;6177777;28;97079;-63
2022/12/29 01:10:09;;;;;;;;;7.00;6.50;;;;;9.78;37.36;98786.84;6167950;28;98333;-64
2022/12/29 01:12:13;;;;;;;;;6.60;6.60;;;;;9.77;37.38;98790.59;6176055;27;96610;-64
2022/12/29 01:15:17;;;;;;;;;8.60;8.60;;;;;9.81;37.55;98782.91;6183667;28;96466;-64
2022/12/29 01:18:21;;;;;;;;;8.60;8.60;;;;;9.81;37.37;98775.66;6183446;27;96812;-64
2022/12/29 01:21:25;;;;;;;;;9.20;7.60;;;;;9.81;37.29;98770.28;6182833;28;96452;-63
2022/12/29 01:24:29;;;;;;;;;6.00;6.00;;;;;9.84;37.52;98759.06;6185042;28;96183;-64
2022/12/29 01:27:33;;;;;;;;;8.00;7.00;;;;;9.88;37.43;98762.13;6164320;28;99544;-64
2022/12/29 01:30:37;;;;;;;;;9.40;8.80;;;;;9.92;37.30;98750.69;6165918;28;98441;-64
2022/12/29 01:33:42;;;;;;;;;5.60;5.60;;;;;9.94;37.29;98745.91;6166467;28;98384;-63
2022/12/29 01:36:47;;;;;;;;;8.25;7.00;;;;;9.87;37.33;98733.56;6183051;28;96662;-63
2022/12/29 01:39:50;;;;;;;;;7.40;7.40;;;;;9.86;37.50;98737.31;6182173;28;96508;-63
2022/12/29 01:42:55;;;;;;;;;7.00;7.00;;;;;9.93;37.34;98730.78;6182719;28;98339;-65
2022/12/29 01:45:58;;;;;;;;;8.00;7.50;;;;;9.95;37.58;98725.19;6167372;27;96669;-64
2022/12/29 01:49:11;;;;;;;;;6.25;5.25;;;;;10.00;37.45;98733.44;6182644;28;96573;-64
2022/12/29 01:52:15;;;;;;;;;7.00;7.00;;;;;10.05;37.56;98732.78;6183317;28;96238;-64
2022/12/29 01:55:19;;;;;;;;;4.00;4.00;;;;;9.99;37.37;98726.41;6184251;28;96325;-64
2022/12/29 01:58:28;;;;;;;;;6.00;5.40;;;;;9.95;37.24;98717.94;6173827;28;96357;-64
2022/12/29 02:01:32;;;;;;;;;5.00;5.00;;;;;10.16;37.05;98738.28;6200759;28;96245;-64
2022/12/29 02:04:44;;;;;;;;;6.60;6.60;;;;;10.20;37.38;98744.88;6167293;28;98090;-64
2022/12/29 02:07:48;;;;;;;;;7.00;6.00;;;;;10.22;37.10;98734.69;6163524;27;96345;-65
2022/12/29 02:10:53;;;;;;;;;6.00;4.40;;;;;10.23;37.11;98722.88;6184387;28;97166;-65
2022/12/29 02:13:59;;;;;;;;;7.20;7.20;;;;;10.25;37.27;98712.69;6165484;27;96973;-65
2022/12/29 02:17:15;;;;;;;;;7.20;7.20;;;;;10.28;37.28;98727.59;6181709;28;96913;-65
2022/12/29 02:21:05;;;;;;;;;5.00;5.00;;;;;10.30;37.52;98720.13;6182585;28;96651;-65
2022/12/29 02:24:51;;;;;;;;;5.00;4.60;;;;;10.35;37.39;98717.56;6182503;28;96728;-64
2022/12/29 02:28:39;;;;;;;;;6.40;6.00;;;;;10.42;37.47;98712.91;6198577;28;96262;-65
2022/12/29 02:31:50;;;;;;;;;8.00;7.00;;;;;10.44;37.11;98705.44;6195563;28;96458;-64
2022/12/29 02:35:02;;;;;;;;;8.00;7.40;;;;;10.53;36.97;98697.88;6182858;28;96314;-64
2022/12/29 02:38:18;;;;;;;;;4.60;4.60;;;;;10.55;37.03;98706.56;6183207;28;98355;-64
2022/12/29 02:41:32;;;;;;;;;6.60;6.60;;;;;10.60;37.10;98694.06;6185221;28;96931;-64
2022/12/29 02:44:44;;;;;;;;;7.00;7.00;;;;;10.56;36.89;98687.44;6165819;28;99400;-65
2022/12/29 02:47:57;;;;;;;;;5.60;5.00;;;;;10.63;37.13;98682.81;6180945;28;96282;-65
2022/12/29 02:51:04;;;;;;;;;6.00;5.00;;;;;10.64;37.09;98675.53;6163310;28;98470;-64
2022/12/29 02:57:33;;;;;;;;;6.00;6.00;;;;;10.72;36.92;98670.66;6182471;28;96472;-64
2022/12/29 03:00:44;;;;;;;;;7.50;6.50;;;;;10.68;36.85;98671.34;6177495;27;96574;-65
2022/12/29 03:04:07;;;;;;;;;9.60;9.00;;;;;10.71;37.12;98668.19;6164192;28;98080;-64
2022/12/29 03:07:20;;;;;;;;;8.40;7.40;;;;;10.75;36.84;98664.00;6181816;28;96199;-64
2022/12/29 03:10:36;;;;;;;;;7.00;6.00;;;;;10.47;36.60;98616.03;6182678;28;96167;-64
2022/12/29 03:17:16;;;;;;;;;6.80;5.80;;;;;10.86;36.76;98663.19;6180214;28;97329;-64
2022/12/29 03:20:27;;;;;;;;;6.50;4.50;;;;;10.83;36.86;98645.63;6187942;28;96239;-64
2022/12/29 03:23:34;;;;;;;;;8.25;8.00;;;;;10.84;36.80;98641.88;6269236;27;96044;-64
2022/12/29 03:26:38;;;;;;;;;6.60;6.00;;;;;10.88;36.66;98647.63;6182863;28;97118;-64
2022/12/29 03:29:52;;;;;;;;;8.00;7.00;;;;;10.84;36.34;98641.06;6180607;28;96923;-64
2022/12/29 03:32:59;;;;;;;;;8.00;8.00;;;;;10.82;36.56;98652.06;6264836;27;96261;-64
2022/12/29 03:36:13;;;;;;;;;5.00;5.00;;;;;10.66;36.63;98619.50;6158138;28;96695;-65
2022/12/29 03:39:18;;;;;;;;;7.25;6.25;;;;;10.83;36.24;98658.28;6174009;28;96648;-64
2022/12/29 03:42:27;;;;;;;;;8.00;7.00;;;;;10.88;36.24;98663.00;6187273;28;96401;-64
2022/12/29 03:45:30;;;;;;;;;8.50;8.00;;;;;10.95;36.22;98655.59;6187119;28;96525;-64
2022/12/29 03:48:33;;;;;;;;;7.00;7.00;;;;;10.98;36.20;98655.16;6185583;28;96646;-64
2022/12/29 03:51:38;;;;;;;;;9.00;7.60;;;;;11.01;36.41;98649.31;6169511;28;98336;-64
2022/12/29 03:54:42;;;;;;;;;8.00;6.60;;;;;11.02;36.28;98641.00;6186097;28;96839;-64
2022/12/29 03:57:46;;;;;;;;;7.00;6.00;;;;;10.96;36.46;98632.97;6184402;28;96556;-63
2022/12/29 04:00:55;;;;;;;;;7.00;6.00;;;;;11.09;36.46;98659.78;6184132;27;96386;-64
2022/12/29 04:03:59;;;;;;;;;8.00;8.00;;;;;11.11;36.64;98669.28;6185654;28;96801;-64
2022/12/29 04:07:04;;;;;;;;;6.20;6.20;;;;;11.14;36.51;98666.09;6185258;28;96374;-65
2022/12/29 04:10:08;;;;;;;;;6.00;5.60;;;;;11.09;36.70;98663.28;6181146;28;96498;-65
2022/12/29 04:13:12;;;;;;;;;10.00;9.00;;;;;11.04;36.79;98668.56;6202236;28;96436;-65
2022/12/29 04:16:16;;;;;;;;;9.00;8.80;;;;;11.01;36.83;98673.56;6184421;28;96371;-64
2022/12/29 04:19:20;;;;;;;;;9.00;8.00;;;;;10.93;36.83;98677.44;6184688;27;96666;-65
2022/12/29 04:22:26;;;;;;;;;7.00;7.00;;;;;10.90;37.26;98690.56;6188867;28;96645;-65
2022/12/29 04:25:31;;;;;;;;;8.20;8.00;;;;;10.90;37.09;98679.78;6179076;28;96603;-65
2022/12/29 04:28:35;;;;;;;;;8.00;7.00;;;;;10.78;37.33;98667.06;6167750;28;97138;-64
2022/12/29 04:31:51;;;;;;;;;8.80;8.40;;;;;10.74;37.10;98662.34;6184522;28;96943;-65
2022/12/29 04:34:55;;;;;;;;;8.60;8.00;;;;;10.68;37.06;98655.16;6167641;27;96789;-64
2022/12/29 04:38:00;;;;;;;;;7.00;6.00;;;;;10.61;37.19;98657.13;6183986;28;96206;-64
2022/12/29 04:41:04;;;;;;;;;8.00;8.00;;;;;10.50;37.02;98661.41;6176387;28;97691;-65
2022/12/29 04:44:09;;;;;;;;;7.00;6.00;;;;;10.47;37.57;98656.47;6178599;28;96879;-64
2022/12/29 04:47:45;;;;;;;;;9.00;8.00;;;;;10.41;37.65;98650.09;6187451;27;96484;-65
2022/12/29 04:51:12;;;;;;;;;8.00;8.00;;;;;10.40;37.75;98647.66;6171698;28;97441;-64
2022/12/29 04:54:18;;;;;;;;;5.60;5.60;;;;;10.40;37.72;98644.97;6192487;28;96176;-65
2022/12/29 04:57:31;;;;;;;;;8.25;8.25;;;;;10.39;37.50;98630.66;6179160;28;96449;-65
2022/12/29 05:00:36;;;;;;;;;9.50;9.00;;;;;10.35;37.45;98613.31;6177879;28;97629;-63
2022/12/29 05:03:40;;;;;;;;;7.40;7.00;;;;;10.38;37.42;98626.31;6182274;28;96304;-65
2022/12/29 05:06:44;;;;;;;;;9.00;8.00;;;;;10.45;37.32;98641.59;6182304;28;96370;-64
2022/12/29 05:09:48;;;;;;;;;10.60;9.00;;;;;10.46;37.13;98637.84;6184277;28;96586;-65
2022/12/29 05:12:52;;;;;;;;;5.00;5.00;;;;;10.45;36.77;98633.50;6181557;28;96662;-64
2022/12/29 05:15:55;;;;;;;;;8.00;7.00;;;;;10.49;36.74;98637.38;6180244;28;96338;-65
2022/12/29 05:18:59;;;;;;;;;5.80;5.00;;;;;10.43;36.83;98626.47;6166814;27;96669;-65
2022/12/29 05:22:03;;;;;;;;;7.00;7.00;;;;;10.38;36.98;98623.63;6191248;28;96650;-65
2022/12/29 05:25:09;;;;;;;;;9.00;8.00;;;;;10.33;37.30;98612.69;6161884;28;96384;-65
2022/12/29 05:28:43;;;;;;;;;7.00;7.00;;;;;10.32;37.27;98608.34;6176552;28;97448;-64
2022/12/29 05:31:49;;;;;;;;;8.00;7.00;;;;;10.28;37.21;98604.47;6199396;27;96268;-65
2022/12/29 05:34:52;;;;;;;;;8.40;8.40;;;;;10.23;37.58;98598.13;6184731;27;96861;-65
2022/12/29 05:37:56;;;;;;;;;8.00;8.00;;;;;10.17;37.69;98590.94;6190494;27;97806;-64
2022/12/29 05:41:01;;;;;;;;;6.00;6.00;;;;;10.09;37.80;98600.13;6174636;28;96409;-65
2022/12/29 05:44:24;;;;;;;;;9.00;8.00;;;;;10.11;37.99;98599.91;6187724;27;96867;-65
2022/12/29 05:47:50;;;;;;;;;6.00;6.00;;;;;10.13;37.96;98604.00;6181831;28;96285;-65
2022/12/29 05:51:03;;;;;;;;;9.00;9.00;;;;;10.16;37.55;98589.31;6171408;28;98051;-64
2022/12/29 05:54:20;;;;;;;;;7.40;7.40;;;;;10.26;37.67;98598.47;6178584;28;96425;-64
2022/12/29 05:57:25;;;;;;;;;6.00;6.00;;;;;10.25;37.70;98596.84;6177457;28;97579;-65
2022/12/29 06:00:38;;;;;;;;;7.00;7.00;;;;;10.38;37.69;98618.22;6186432;28;96660;-65
2022/12/29 06:03:42;;;;;;;;;6.00;6.00;;;;;10.39;37.86;98613.66;6165741;28;96217;-65
2022/12/29 06:06:51;;;;;;;;;8.00;7.60;;;;;10.47;37.73;98601.72;6162104;27;96341;-65
2022/12/29 06:10:00;;;;;;;;;7.20;7.20;;;;;10.52;37.77;98597.31;6181351;28;96260;-66
2022/12/29 06:13:08;;;;;;;;;7.60;7.00;;;;;10.56;37.77;98593.09;6173515;28;96542;-65
2022/12/29 06:16:15;;;;;;;;;8.25;7.25;;;;;10.59;38.01;98606.16;6178711;28;96666;-65
2022/12/29 06:19:19;;;;;;;;;7.00;7.00;;;;;10.61;38.11;98606.72;6188278;28;96520;-64
2022/12/29 06:22:22;;;;;;;;;8.00;7.00;;;;;10.62;38.04;98607.53;6168171;28;97504;-65
2022/12/29 06:25:26;;;;;;;;;5.60;5.60;;;;;10.58;38.20;98603.66;6182082;28;96798;-65
2022/12/29 06:28:31;;;;;;;;;8.25;8.00;;;;;10.61;38.06;98601.31;6178811;28;96329;-65
2022/12/29 06:31:36;;;;;;;;;6.40;6.40;;;;;10.59;38.33;98611.53;6183578;28;97066;-65
2022/12/29 06:34:40;;;;;;;;;6.80;6.80;;;;;10.53;38.61;98607.06;6168974;28;98071;-65
2022/12/29 06:37:43;;;;;;;;;7.00;6.00;;;;;10.57;38.83;98600.16;6160804;28;96946;-65
2022/12/29 06:40:46;;;;;;;;;7.00;7.00;;;;;10.65;38.82;98616.00;6172720;28;96460;-64
2022/12/29 06:43:57;;;;;;;;;6.60;6.40;;;;;10.73;38.59;98607.59;6181343;28;97066;-65
2022/12/29 06:47:12;;;;;;;;;6.00;6.00;;;;;10.74;38.69;98584.97;6165591;28;96284;-65
2022/12/29 06:50:16;;;;;;;;;8.25;8.00;;;;;10.90;38.71;98609.66;6181191;28;96548;-66
2022/12/29 06:53:20;;;;;;;;;7.00;6.00;;;;;10.95;38.64;98602.47;6177343;28;96446;-65
2022/12/29 06:56:23;;;;;;;;;7.00;7.00;;;;;11.00;38.83;98608.00;6178801;28;96346;-65
2022/12/29 06:59:28;;;;;;;;;7.00;6.60;;;;;11.08;38.55;98604.19;6163063;28;96285;-65
2022/12/29 07:02:31;;;;;;;;;6.60;6.60;;;;;11.15;38.47;98596.78;6158731;28;98424;-65
2022/12/29 07:05:35;;;;;;;;;7.00;6.40;;;;;11.13;38.31;98580.84;6160899;28;96626;-65
2022/12/29 07:08:39;;;;;;;;;6.80;6.00;;;;;11.25;38.23;98584.38;6159567;28;96320;-65
2022/12/29 07:11:42;;;;;;;;;6.60;6.00;;;;;11.30;38.29;98578.25;6181315;28;96310;-65
2022/12/29 07:14:47;;;;;;;;;9.60;8.60;;;;;11.35;38.21;98581.09;6187066;28;96541;-65
2022/12/29 07:17:50;;;;;;;;;12.00;12.00;;;;;11.45;37.89;98584.03;6187378;28;96308;-65
2022/12/29 07:20:53;;;;;;;;;9.60;9.00;;;;;11.48;38.01;98585.44;6187234;28;96588;-65
2022/12/29 07:23:57;;;;;;;;;8.00;8.00;;;;;11.55;37.75;98580.72;6183417;28;96473;-66
2022/12/29 07:27:00;;;;;;;;;8.00;8.00;;;;;11.67;37.61;98589.66;6177922;28;96833;-65
2022/12/29 07:30:06;;;;;;;;;9.00;8.00;;;;;11.74;37.49;98593.09;6187058;28;96315;-64
2022/12/29 07:33:09;;;;;;;;;10.00;9.00;;;;;11.83;37.16;98594.38;6183373;28;96389;-65
2022/12/29 07:36:13;;;;;;;;;10.00;9.00;;;;;11.84;37.28;98585.22;6171079;28;97606;-65
2022/12/29 07:39:17;;;;;;;;;9.20;7.60;;;;;12.08;36.98;98599.50;6181680;28;96380;-65
2022/12/29 07:42:20;;;;;;;;;7.00;7.00;;;;;12.20;36.85;98596.78;6178058;28;97029;-65
2022/12/29 07:45:28;;;;;;;;;10.00;10.00;;;;;12.29;36.82;98595.34;6185770;28;96666;-65
2022/12/29 07:48:44;;;;;;;;;9.00;7.25;;;;;12.39;36.56;98590.13;6169669;28;96249;-65
2022/12/29 07:51:47;;;;;;;;;9.33;8.00;;;;;12.49;35.86;98599.28;6173512;28;96410;-65
2022/12/29 07:54:50;;;;;;;;;10.00;9.00;;;;;12.68;35.74;98601.78;6187256;28;96271;-65
2022/12/29 07:57:54;;;;;;;;;9.00;8.00;;;;;12.87;35.53;98595.91;6178747;28;96415;-64
2022/12/29 08:00:59;;;;;;;;;7.40;7.40;;;;;13.08;35.49;98597.09;6188572;28;96618;-66
2022/12/29 08:04:03;;;;;;;;;7.00;7.00;;;;;13.24;35.18;98590.09;6182956;28;96434;-66
2022/12/29 08:07:06;;;;;;;;;10.00;9.40;;;;;13.48;34.81;98588.84;6186340;28;96569;-66
2022/12/29 08:10:10;;;;;;;;;9.00;8.00;;;;;13.65;34.28;98586.94;6182021;28;97088;-66
2022/12/29 08:13:13;;;;;;;;;9.00;9.00;;;;;13.82;34.05;98579.59;6184696;28;96578;-66
2022/12/29 08:16:18;;;;;;;;;8.00;7.25;;;;;14.10;33.70;98589.44;6185834;28;96468;-66
2022/12/29 08:19:21;;;;;;;;;7.00;7.00;;;;;14.45;33.13;98582.84;6186928;28;96290;-66
2022/12/29 08:22:26;;;;;;;;;9.50;8.50;;;;;14.66;33.22;98592.88;6186178;28;96479;-66
2022/12/29 08:25:29;;;;;;;;;9.00;9.00;;;;;14.84;32.04;98587.06;6185693;28;96328;-66
2022/12/29 08:28:33;;;;;;;;;7.40;7.40;;;;;15.36;31.60;98600.03;6184756;28;96947;-66
2022/12/29 08:31:38;;;;;;;;;9.00;8.00;;;;;15.99;30.63;98599.94;6183310;28;96673;-64
2022/12/29 08:34:41;;;;;;;;;8.75;7.75;;;;;16.48;29.76;98603.16;6175589;28;98336;-65
2022/12/29 08:37:44;;;;;;;;;8.60;7.60;;;;;17.01;29.14;98594.88;6183307;28;96637;-66
2022/12/29 08:40:47;;;;;;;;;8.00;8.00;;;;;17.62;27.69;98598.47;6177591;28;96511;-65
2022/12/29 08:43:51;;;;;;;;;10.00;8.00;;;;;18.22;27.66;98597.53;6171889;28;96382;-65
2022/12/29 08:46:56;;;;;;;;;10.00;9.40;;;;;18.79;26.88;98594.28;6180967;28;96950;-64
2022/12/29 08:49:59;;;;;;;;;8.00;7.00;;;;;19.06;26.19;98591.09;6169818;27;96720;-66
2022/12/29 08:53:02;;;;;;;;;9.00;8.00;;;;;19.08;25.65;98583.44;6155997;27;97854;-66
2022/12/29 08:56:07;;;;;;;;;8.00;6.00;;;;;19.19;25.78;98587.75;6174522;27;96447;-65
2022/12/29 08:59:19;;;;;;;;;8.00;8.00;;;;;19.21;25.63;98592.91;6173407;28;96844;-64
2022/12/29 09:02:25;;;;;;;;;8.00;8.00;;;;;19.61;25.46;98587.16;6176208;28;98283;-67
2022/12/29 09:05:29;;;;;;;;;7.60;7.60;;;;;20.41;24.76;98590.16;6185829;27;97036;-68
2022/12/29 09:08:32;;;;;;;;;8.20;6.80;;;;;21.22;23.58;98597.25;6182134;28;97411;-66
2022/12/29 09:11:36;;;;;;;;;6.75;5.75;;;;;22.09;22.66;98589.19;6175439;28;96505;-65
2022/12/29 09:14:39;;;;;;;;;8.00;7.00;;;;;22.97;21.11;98585.16;6185381;28;97531;-65
2022/12/29 09:17:45;;;;;;;;;6.00;6.00;;;;;24.38;20.24;98571.69;6177497;28;96265;-66
2022/12/29 09:20:48;;;;;;;;;8.00;8.00;;;;;25.98;18.97;98568.78;6174615;28;96649;-66
2022/12/29 09:23:52;;;;;;;;;8.00;7.00;;;;;27.09;18.12;98573.75;6179006;28;97430;-67
2022/12/29 09:26:55;;;;;;;;;8.00;7.00;;;;;27.80;17.04;98567.28;6178179;28;96557;-65
2022/12/29 09:29:59;;;;;;;;;8.00;6.00;;;;;29.04;15.99;98563.84;6184804;28;97815;-68
2022/12/29 09:33:04;;;;;;;;;5.00;5.00;;;;;30.03;15.56;98563.91;6184537;28;97847;-66
2022/12/29 09:36:09;;;;;;;;;7.20;6.80;;;;;30.58;15.02;98558.53;6170825;28;96551;-66
2022/12/29 09:39:13;;;;;;;;;6.25;5.75;;;;;30.38;14.26;98554.84;6182101;28;96676;-67
2022/12/29 09:42:24;;;;;;;;;8.00;7.00;;;;;30.50;15.07;98544.44;6184384;28;96471;-66
2022/12/29 09:45:34;;;;;;;;;8.00;8.00;;;;;30.70;14.64;98527.78;6184840;28;97506;-66
2022/12/29 09:48:44;;;;;;;;;7.00;7.00;;;;;31.22;14.46;98524.59;6184837;28;96975;-66
2022/12/29 09:51:52;;;;;;;;;7.00;5.60;;;;;32.10;13.90;98533.84;6184754;28;96770;-66
2022/12/29 09:55:00;;;;;;;;;8.00;7.50;;;;;32.99;13.27;98545.25;6198786;27;96794;-67
2022/12/29 09:58:22;;;;;;;;;6.00;5.00;;;;;34.12;12.58;98544.97;6182317;28;96565;-66
2022/12/29 10:01:33;;;;;;;;;7.00;6.00;;;;;34.04;12.44;98549.72;6177759;28;96645;-67
2022/12/29 10:04:38;;;;;;;;;4.00;4.00;;;;;32.84;13.03;98546.22;6184065;28;97570;-66
2022/12/29 10:07:49;;;;;;;;;6.00;5.00;;;;;31.49;13.58;98540.25;6184271;28;98636;-64
2022/12/29 10:10:57;;;;;;;;;7.25;6.25;;;;;30.92;14.01;98541.84;6169918;28;97083;-66
2022/12/29 10:14:21;;;;;;;;;5.80;5.20;;;;;31.10;14.21;98531.13;6175086;28;96813;-67
2022/12/29 10:17:35;;;;;;;;;6.00;5.50;;;;;31.53;13.48;98534.75;6183395;28;97226;-65
2022/12/29 10:20:50;;;;;;;;;7.00;7.00;;;;;31.88;13.38;98520.72;6180724;28;96593;-66
2022/12/29 10:23:55;;;;;;;;;6.20;6.00;;;;;32.19;13.12;98526.88;6176243;28;96636;-67
2022/12/29 10:27:00;;;;;;;;;8.00;7.00;;;;;32.45;13.10;98528.09;6171694;28;96732;-67
2022/12/29 10:30:04;;;;;;;;;6.60;6.60;;;;;32.53;12.54;98530.59;6163584;28;96604;-67
2022/12/29 10:33:15;;;;;;;;;8.00;7.00;;;;;32.40;12.91;98531.97;6175825;28;96659;-67
2022/12/29 10:36:30;;;;;;;;;7.00;6.00;;;;;32.52;12.81;98526.19;6175326;28;96790;-66
2022/12/29 10:39:39;;;;;;;;;8.00;7.00;;;;;32.25;12.73;98524.59;6176401;28;97451;-67
2022/12/29 10:42:47;;;;;;;;;7.00;7.00;;;;;32.41;12.82;98516.03;6168755;28;96761;-68
2022/12/29 10:45:52;;;;;;;;;7.00;6.00;;;;;32.87;12.81;98519.56;6183604;28;96524;-67
2022/12/29 10:48:56;;;;;;;;;6.00;5.00;;;;;33.21;12.58;98518.44;6181554;28;97908;-67
2022/12/29 10:52:04;;;;;;;;;8.00;7.40;;;;;33.46;12.43;98510.34;6178676;28;96588;-68
2022/12/29 10:55:14;;;;;;;;;6.60;6.00;;;;;33.63;12.68;98522.88;6183500;28;96826;-67
2022/12/29 10:58:18;;;;;;;;;5.00;5.00;;;;;33.67;12.38;98505.03;6179812;28;96929;-68
2022/12/29 11:01:23;;;;;;;;;7.40;6.40;;;;;32.75;13.29;98494.63;6183082;28;97243;-66
2022/12/29 11:04:46;;;;;;;;;6.80;6.00;;;;;31.34;14.09;98472.31;6182356;28;96398;-67
2022/12/29 11:07:58;;;;;;;;;7.00;7.00;;;;;30.02;15.19;98486.44;6180355;28;97077;-67
2022/12/29 11:11:03;;;;;;;;;8.00;7.40;;;;;28.72;16.21;98476.06;6172343;27;96672;-68
2022/12/29 11:14:14;;;;;;;;;8.00;7.00;;;;;27.73;16.67;98479.19;6177707;28;96781;-66
2022/12/29 11:17:18;;;;;;;;;9.50;7.00;;;;;26.76;17.72;98464.97;6175535;28;96388;-67
2022/12/29 11:20:31;;;;;;;;;9.00;8.00;;;;;26.00;18.82;98486.41;6172646;28;96949;-65
2022/12/29 11:23:37;;;;;;;;;10.00;10.00;;;;;25.20;19.34;98482.59;6180709;28;97623;-66
2022/12/29 11:26:44;;;;;;;;;10.40;10.40;;;;;24.39;20.15;98485.13;6176380;27;96558;-66
2022/12/29 11:29:49;;;;;;;;;11.00;11.00;;;;;23.77;20.79;98476.97;6177979;27;96595;-66
2022/12/29 11:32:53;;;;;;;;;13.00;12.00;;;;;23.13;21.11;98470.13;6181871;28;96442;-65
2022/12/29 11:36:00;;;;;;;;;11.00;11.00;;;;;22.87;22.00;98479.00;6185595;27;97137;-66
2022/12/29 11:39:05;;;;;;;;;11.80;11.80;;;;;22.75;22.02;98480.69;6163724;27;96613;-66
2022/12/29 11:42:18;;;;;;;;;9.00;9.00;;;;;22.51;22.30;98475.44;6163996;27;98484;-65
2022/12/29 11:45:23;;;;;;;;;10.25;9.00;;;;;23.18;21.91;98483.75;6160834;27;96505;-65
2022/12/29 11:48:32;;;;;;;;;12.00;10.00;;;;;24.40;20.75;98476.53;6164904;28;96606;-66
2022/12/29 11:51:44;;;;;;;;;11.00;10.00;;;;;25.84;19.26;98475.94;6188038;27;97034;-66
2022/12/29 11:54:49;;;;;;;;;9.00;8.00;;;;;27.19;18.01;98475.66;6169859;27;96705;-66
2022/12/29 11:57:56;;;;;;;;;10.00;8.00;;;;;28.24;17.63;98469.44;6176294;27;97029;-67
2022/12/29 12:01:03;;;;;;;;;8.00;8.00;;;;;29.14;15.89;98476.47;6182371;27;96605;-67
2022/12/29 12:04:11;;;;;;;;;6.00;5.00;;;;;29.60;16.47;98464.72;6174269;28;96766;-66
2022/12/29 12:07:18;;;;;;;;;6.00;5.00;;;;;29.46;16.22;98464.34;6173503;27;96748;-65
2022/12/29 12:10:28;;;;;;;;;5.00;4.40;;;;;28.93;16.65;98464.78;6173551;27;96435;-65
2022/12/29 12:13:39;;;;;;;;;5.00;5.00;;;;;27.79;17.30;98468.69;6170756;28;96892;-66
2022/12/29 12:16:47;;;;;;;;;8.00;7.20;;;;;26.47;18.49;98467.78;6174378;27;96607;-67
2022/12/29 12:19:59;;;;;;;;;5.00;5.00;;;;;25.15;19.83;98463.44;6172757;27;97470;-67
2022/12/29 12:23:14;;;;;;;;;7.40;6.00;;;;;24.06;21.15;98465.41;6178263;27;96668;-65
2022/12/29 12:26:22;;;;;;;;;6.00;6.00;;;;;23.40;22.11;98463.66;6174049;27;96712;-66
2022/12/29 12:29:32;;;;;;;;;6.00;6.00;;;;;22.62;22.53;98463.09;6182537;28;96097;-66
2022/12/29 12:32:43;;;;;;;;;8.00;7.00;;;;;22.02;23.83;98470.75;6173871;27;96456;-68
2022/12/29 12:35:58;;;;;;;;;7.00;6.00;;;;;21.27;24.58;98451.06;6165332;27;97429;-66
2022/12/29 12:39:11;;;;;;;;;8.00;7.40;;;;;20.81;25.16;98465.53;6178013;27;96309;-66
2022/12/29 12:42:35;;;;;;;;;6.00;6.00;;;;;20.40;26.11;98464.50;6179296;27;96925;-66
2022/12/29 12:45:50;;;;;;;;;6.80;6.00;;;;;19.90;26.69;98464.03;6169374;27;96623;-65
2022/12/29 12:49:18;;;;;;;;;10.60;9.00;;;;;19.70;26.96;98458.78;6175699;27;96544;-65
2022/12/29 12:52:33;;;;;;;;;6.80;5.80;;;;;19.33;27.42;98451.25;6168028;28;97851;-66
2022/12/29 12:56:04;;;;;;;;;6.00;6.00;;;;;19.03;28.30;98455.06;6180376;27;96655;-66
2022/12/29 12:59:24;;;;;;;;;5.80;5.80;;;;;18.90;28.47;98456.56;6179453;27;96944;-66
2022/12/29 13:02:40;;;;;;;;;6.60;6.40;;;;;18.69;28.89;98462.47;6169390;27;96404;-65
2022/12/29 13:06:10;;;;;;;;;9.00;8.00;;;;;18.42;29.31;98458.22;6173195;27;96703;-65
2022/12/29 13:09:40;;;;;;;;;7.40;7.00;;;;;18.28;29.57;98459.13;6167580;27;96714;-65
2022/12/29 13:12:53;;;;;;;;;10.40;8.40;;;;;18.07;30.01;98467.47;6164910;27;96744;-65
2022/12/29 13:16:06;;;;;;;;;9.40;9.40;;;;;17.99;30.18;98457.13;6171199;27;96639;-65
2022/12/29 13:19:28;;;;;;;;;9.75;8.00;;;;;17.84;30.71;98483.66;6175755;27;96553;-66
2022/12/29 13:22:39;;;;;;;;;8.25;7.50;;;;;17.66;30.88;98474.97;6199848;27;96258;-65
2022/12/29 13:25:48;;;;;;;;;8.75;6.75;;;;;17.66;31.27;98464.06;6180624;27;97045;-65
2022/12/29 13:28:58;;;;;;;;;9.00;8.00;;;;;17.57;31.25;98478.53;6178704;27;96410;-65
2022/12/29 13:32:22;;;;;;;;;7.75;7.75;;;;;17.38;31.68;98477.47;6181176;27;96295;-65
2022/12/29 13:35:55;;;;;;;;;8.00;8.00;;;;;17.50;31.23;98478.81;6170111;27;96829;-64
2022/12/29 13:39:05;;;;;;;;;9.60;9.00;;;;;17.54;31.19;98476.34;6179745;27;96302;-65
2022/12/29 13:42:10;;;;;;;;;8.75;8.75;;;;;17.51;31.08;98476.88;6176062;27;96194;-65
2022/12/29 13:45:18;;;;;;;;;9.00;8.20;;;;;17.36;31.41;98469.56;6172281;27;97038;-65
2022/12/29 13:48:26;;;;;;;;;9.00;8.50;;;;;17.30;31.66;98470.66;6190054;27;96857;-65
2022/12/29 13:51:30;;;;;;;;;8.25;8.25;;;;;17.22;31.42;98476.69;6175702;27;96330;-66
2022/12/29 13:54:44;;;;;;;;;10.00;9.00;;;;;17.16;31.60;98480.50;6176773;28;97834;-66
2022/12/29 13:57:54;;;;;;;;;8.67;8.00;;;;;17.09;32.03;98488.97;6177268;27;96450;-65
2022/12/29 14:01:03;;;;;;;;;9.00;7.75;;;;;16.81;32.28;98473.97;6170470;27;96934;-66
2022/12/29 14:04:14;;;;;;;;;9.40;8.20;;;;;16.76;32.47;98478.63;6171328;28;96997;-64
2022/12/29 14:07:18;;;;;;;;;7.20;7.00;;;;;16.64;32.72;98473.44;6179866;27;96892;-65
2022/12/29 14:10:30;;;;;;;;;9.40;9.00;;;;;16.51;32.93;98467.66;6175753;28;97089;-65
2022/12/29 14:13:39;;;;;;;;;8.00;7.80;;;;;16.34;33.36;98484.22;6168507;27;96550;-65
2022/12/29 14:16:43;;;;;;;;;8.00;7.40;;;;;16.28;33.16;98475.22;6175218;28;96542;-65
2022/12/29 14:19:53;;;;;;;;;8.75;8.00;;;;;16.20;33.61;98472.22;6168871;27;96316;-63
2022/12/29 14:22:59;;;;;;;;;8.00;6.00;;;;;16.13;33.56;98477.91;6168959;28;96864;-65
2022/12/29 14:26:17;;;;;;;;;8.00;7.60;;;;;16.08;33.75;98479.81;6170506;28;96370;-66
2022/12/29 14:29:46;;;;;;;;;10.20;8.60;;;;;16.21;33.50;98482.84;6174243;27;96839;-66
2022/12/29 14:33:03;;;;;;;;;9.00;8.00;;;;;16.24;33.25;98470.59;6171353;27;96467;-65
2022/12/29 14:36:27;;;;;;;;;8.00;8.00;;;;;16.20;33.58;98469.50;6170479;28;96759;-65
2022/12/29 14:39:38;;;;;;;;;11.00;9.00;;;;;16.15;33.64;98474.94;6177913;27;96288;-66
2022/12/29 14:42:43;;;;;;;;;8.50;8.50;;;;;16.13;33.42;98475.19;6253717;27;98585;-66
2022/12/29 14:45:56;;;;;;;;;9.00;8.00;;;;;16.01;33.88;98471.91;6171294;27;97352;-65
2022/12/29 14:49:00;;;;;;;;;9.00;9.00;;;;;15.94;33.85;98471.31;6157956;27;98447;-66
2022/12/29 14:52:17;;;;;;;;;9.00;9.00;;;;;15.84;34.07;98472.09;6180252;28;96740;-65
2022/12/29 14:55:37;;;;;;;;;9.00;8.75;;;;;15.74;34.12;98482.91;6175925;27;96401;-64
2022/12/29 14:58:48;;;;;;;;;11.00;9.00;;;;;15.65;34.36;98475.53;6161153;28;97611;-65
2022/12/29 15:01:56;;;;;;;;;11.40;10.40;;;;;15.64;34.43;98492.94;6175715;27;96854;-65
2022/12/29 15:05:01;;;;;;;;;10.00;9.67;;;;;15.67;34.08;98495.13;6173744;27;96548;-65
2022/12/29 15:08:08;;;;;;;;;10.00;9.75;;;;;15.67;34.47;98493.22;6171505;28;97075;-65
2022/12/29 15:11:16;;;;;;;;;13.00;13.00;;;;;15.66;34.54;98497.03;6173223;27;96544;-65
2022/12/29 15:14:34;;;;;;;;;11.60;11.60;;;;;15.64;34.40;98501.09;6176374;27;97015;-65
2022/12/29 15:17:38;;;;;;;;;13.00;11.00;;;;;15.55;34.61;98504.28;6175410;27;96365;-64
2022/12/29 15:20:43;;;;;;;;;12.00;12.00;;;;;15.50;34.60;98492.53;6179711;28;96269;-66